x

Virginia Beach 64 Nm East Of Virginia Beach, Va (44014) Wave Buoy

9:50 - Tue 22nd Aug 2017 All times are EDT. -4 hours from GMT.

  • Sig Wave height 3.6ft
  • Swell Direction
  • Peak Period 9s
  • Average Period 5s
  • Wind
    16mph, 18mph gusts
  • Sea Temp 80°f
  • Ar Temp 80°f
  • Sea Pressure 1014.6mb
  • Virginia Beach 64 Nm East Of Virginia Beach, Va
  • Virginia Beach 64 Nm East Of Virginia Beach, Va

More Historic Weather Station data

Upgrade to MSW Pro to gain access to the past 30 days of data for over 8000 Wavebouys and Weather Stations around the globe.

Join

Comparision Forecast

View Surf forecast
   
Ter 08/22 9:50 3.5ft 9s 5s 16 18 mph 1014.6mb 80f 80f
8:50 3.5ft 9s 5s 16 18 mph 1014.8mb 80f 80f
7:50 3.5ft 11s 5s 16 18 mph 1014.8mb 80f 81f
6:50 3.5ft 11s 5s 16 18 mph 1014.6mb 80f 80f
5:50 3.5ft 11s 5s 16 18 mph 1015.3mb 80f 80f
4:50 3ft 11s 6s 13 16 mph 1016.2mb 81f 80f
2:50 2.5ft 11s 6s 11 13 mph 1018.1mb 81f 80f
1:50 2.5ft 11s 5s 11 13 mph 1018.7mb 80f 80f
12:50 2.5ft 11s 6s 11 13 mph 1018.9mb 80f 80f
11:50 2.5ft 9s 6s 9 11 mph 1019.5mb 80f 79f
10:50 2.5ft 11s 6s 9 9 mph 1020mb 80f 79f
8:50 2.5ft 9s 6s 7 9 mph 1020.2mb 79f 79f
7:50 2.5ft 9s 6s 7 9 mph 1020.4mb 79f 79f
6:50 2.5ft 9s 6s 9 9 mph 1020.4mb 79f 79f
5:50 2ft 9s 6s 7 9 mph 1020.2mb 79f 79f
4:50 2ft 9s 6s 9 9 mph 1020.2mb 79f 79f
3:50 2ft 8s 6s 7 7 mph 1020.7mb 79f 78f
2:50 2ft 10s 6s 9 9 mph 1021.2mb 79f 79f
1:50 2ft 8s 6s 4 7 mph 1021.8mb 79f 78f
12:50 2ft 10s 6s 4 4 mph 1022.2mb 79f 79f
Seg 08/21 11:50 2ft 10s 6s 4 4 mph 1022.1mb 80f 79f
10:50 2ft 7s 6s 4 4 mph 1022.5mb 80f 79f
9:50 2ft 8s 6s 7 9 mph 1022.4mb 80f 80f
8:50 2ft 9s 6s 7 9 mph 1022.1mb 80f 79f
7:50 2ft 8s 6s 9 11 mph 1021.7mb 81f 79f
6:50 2ft 8s 6s 7 7 mph 1021.8mb 81f 79f
5:50 2ft 8s 5s 4 4 mph 1022mb 80f 79f
4:50 2ft 8s 5s 4 4 mph 1022.4mb 80f 79f
3:50 2ft 8s 5s 4 7 mph 1022.4mb 80f 79f
2:50 2ft 8s 5s 4 7 mph 1023.1mb 80f 79f
1:50 2ft 9s 4s 7 9 mph 1024.2mb 80f 79f
12:50 2ft 9s 4s 7 9 mph 1024.5mb 79f 79f
11:50 2ft 8s 4s 11 11 mph 1024.5mb 79f 79f
10:50 1.6ft 9s 4s 11 13 mph 1024.1mb 79f 79f
9:50 1.6ft 8s 5s 11 13 mph 1024mb 79f 79f
8:50 1.6ft 8s 5s 11 11 mph 1023.7mb 79f 79f
7:50 2ft 8s 6s 9 11 mph 1023.5mb 79f 79f
6:50 1.6ft 8s 6s 9 11 mph 1023.1mb 79f 78f
5:50 2ft 8s 6s 9 9 mph 1022.5mb 79f 78f
4:50 2ft 8s 6s 9 9 mph 1022.2mb 79f 78f
3:50 2ft 9s 6s 7 7 mph 1022.5mb 79f 78f
2:50 2ft 8s 6s 7 7 mph 1022.5mb 79f 78f
1:50 2ft 8s 6s 4 7 mph 1022.5mb 78f 78f
12:50 2ft 8s 6s 4 7 mph 1022.6mb 79f 78f
Dom 08/20 11:50 2ft 8s 5s 7 9 mph 1022.1mb 79f 78f
10:50 2ft 8s 5s 7 7 mph 1022.2mb 79f 78f
9:50 2ft 9s 5s 7 7 mph 1022.1mb 80f 79f
8:50 2.5ft 9s 6s 7 7 mph 1021.6mb 80f 79f
7:50 2ft 8s 5s 7 9 mph 1020.8mb 80f 79f
6:50 2ft 8s 5s 9 9 mph 1020.2mb 81f 79f
5:50 2ft 8s 5s 9 9 mph 1020mb 81f 79f
4:50 2ft 8s 6s 7 9 mph 1020.1mb 81f 79f
3:50 2ft 8s 6s 7 7 mph 1020mb 81f 79f
2:50 2ft 9s 6s 4 7 mph 1019.9mb 80f 79f
1:50 2ft 8s 5s 7 9 mph 1020.1mb 80f 79f
12:50 2ft 8s 5s 7 7 mph 1020.1mb 80f 79f
11:50 2ft 8s 5s 7 7 mph 1019.9mb 79f 79f
10:50 2ft 8s 5s 7 9 mph 1019.4mb 79f 79f
9:50 2ft 8s 5s 2 2 mph 1019mb 78f 79f
8:50 2.5ft 9s 6s  -  0 mph 1018.7mb 78f 78f
7:50 2.5ft 8s 5s  -  2 mph 1018.3mb 78f 79f
6:50 2.5ft 6s 5s 2 2 mph 1017.1mb 78f 78f
5:50 2.5ft 6s 5s 2 4 mph 1016.5mb 78f 78f
4:50 2.5ft 9s 5s 2 4 mph 1016.2mb 78f 78f
3:50 2.5ft 6s 6s 4 4 mph 1015.9mb 78f 78f
2:50 2.5ft 9s 6s 7 7 mph 1015.7mb 78f 79f
1:50 2.5ft 6s 5s 11 11 mph 1015.7mb 78f 79f
12:50 2.5ft 6s 5s 9 9 mph 1015.6mb 79f 79f
Sáb 08/19 11:50 2.5ft 6s 5s 4 7 mph 1015.4mb 79f 79f
10:50 2.5ft 6s 5s 4 4 mph 1015.5mb 79f 78f
9:50 3ft 6s 5s 7 9 mph 1014.7mb 79f 78f
8:50 3ft 7s 5s  -  2 mph 1014.1mb 79f 78f
7:50 3.5ft 6s 5s 7 7 mph 1014.1mb 80f 79f
6:50 3.5ft 6s 5s 2 4 mph 1013.6mb 80f 79f
5:50 3.5ft 6s 5s 2 4 mph 1013.7mb 80f 79f
4:50 3ft 6s 5s 4 4 mph 1013.3mb 79f 79f
3:50 3.5ft 6s 5s 4 4 mph 1013.1mb 79f 79f
2:50 3.5ft 6s 5s 7 7 mph 1013.6mb 78f 79f
1:50 3.5ft 6s 5s 7 7 mph 1013.6mb 78f 78f
12:50 3.5ft 6s 5s 7 9 mph 1013.8mb 78f 78f
11:50 3.5ft 6s 5s 9 9 mph 1014mb 77f 78f
10:50 4ft 6s 5s 9 9 mph 1013.7mb 77f 78f
9:50 3.5ft 6s 5s 9 11 mph 1013.2mb 77f 78f
8:50 3.5ft 6s 5s 4 4 mph 1013mb 77f 78f
7:50 3.5ft 6s 5s 2 4 mph 1012.5mb 77f 78f
6:50 3.5ft 5s 5s 2 4 mph 1012.1mb 77f 78f
5:50 3.5ft 6s 5s 7 9 mph 1011.7mb 77f 78f
4:50 3.5ft 6s 4s 4 9 mph 1011.5mb 77f 78f
3:50 3.5ft 5s 5s 4 9 mph 1012.1mb 77f 78f
2:50 3.5ft 5s 4s 9 11 mph 1012.5mb 77f 79f